sensor_id;sensor_type;location;lat;lon;timestamp;P1;durP1;ratioP1;P2;durP2;ratioP2
21800;SDS011;11062;51.164;16.924;2023-05-29T00:01:53;6.55;;;3.08;;
21800;SDS011;11062;51.164;16.924;2023-05-29T00:04:18;7.28;;;3.65;;
21800;SDS011;11062;51.164;16.924;2023-05-29T00:06:47;4.25;;;2.80;;
21800;SDS011;11062;51.164;16.924;2023-05-29T00:09:13;4.88;;;3.15;;
21800;SDS011;11062;51.164;16.924;2023-05-29T00:11:40;4.60;;;3.03;;
21800;SDS011;11062;51.164;16.924;2023-05-29T00:14:06;6.53;;;2.85;;
21800;SDS011;11062;51.164;16.924;2023-05-29T00:16:32;3.63;;;2.75;;
21800;SDS011;11062;51.164;16.924;2023-05-29T00:18:59;7.28;;;3.22;;
21800;SDS011;11062;51.164;16.924;2023-05-29T00:21:25;5.85;;;3.10;;
21800;SDS011;11062;51.164;16.924;2023-05-29T00:23:51;7.28;;;3.25;;
21800;SDS011;11062;51.164;16.924;2023-05-29T00:26:20;5.00;;;3.17;;
21800;SDS011;11062;51.164;16.924;2023-05-29T00:28:46;5.35;;;3.22;;
21800;SDS011;11062;51.164;16.924;2023-05-29T00:31:12;7.20;;;2.80;;
21800;SDS011;11062;51.164;16.924;2023-05-29T00:33:38;7.15;;;3.25;;
21800;SDS011;11062;51.164;16.924;2023-05-29T00:36:04;6.03;;;3.38;;
21800;SDS011;11062;51.164;16.924;2023-05-29T00:38:33;7.35;;;3.05;;
21800;SDS011;11062;51.164;16.924;2023-05-29T00:41:02;6.07;;;3.47;;
21800;SDS011;11062;51.164;16.924;2023-05-29T00:43:31;4.35;;;3.08;;
21800;SDS011;11062;51.164;16.924;2023-05-29T00:45:57;8.30;;;3.58;;
21800;SDS011;11062;51.164;16.924;2023-05-29T00:48:26;7.25;;;3.67;;
21800;SDS011;11062;51.164;16.924;2023-05-29T00:50:55;7.57;;;3.47;;
21800;SDS011;11062;51.164;16.924;2023-05-29T00:53:21;6.72;;;2.95;;
21800;SDS011;11062;51.164;16.924;2023-05-29T00:55:48;8.00;;;2.88;;
21800;SDS011;11062;51.164;16.924;2023-05-29T00:58:15;10.02;;;3.60;;
21800;SDS011;11062;51.164;16.924;2023-05-29T01:00:41;6.20;;;3.38;;
21800;SDS011;11062;51.164;16.924;2023-05-29T01:03:08;6.45;;;3.00;;
21800;SDS011;11062;51.164;16.924;2023-05-29T01:05:39;14.65;;;5.55;;
21800;SDS011;11062;51.164;16.924;2023-05-29T01:08:06;8.52;;;4.60;;
21800;SDS011;11062;51.164;16.924;2023-05-29T01:10:33;10.30;;;3.78;;
21800;SDS011;11062;51.164;16.924;2023-05-29T01:13:41;4.35;;;3.00;;
21800;SDS011;11062;51.164;16.924;2023-05-29T01:15:59;5.93;;;3.33;;
21800;SDS011;11062;51.164;16.924;2023-05-29T01:18:46;8.57;;;3.28;;
21800;SDS011;11062;51.164;16.924;2023-05-29T01:21:34;6.38;;;2.97;;
21800;SDS011;11062;51.164;16.924;2023-05-29T01:27:12;8.68;;;3.47;;
21800;SDS011;11062;51.164;16.924;2023-05-29T01:29:43;5.63;;;3.35;;
21800;SDS011;11062;51.164;16.924;2023-05-29T01:32:11;7.28;;;3.40;;
21800;SDS011;11062;51.164;16.924;2023-05-29T01:34:37;5.82;;;3.30;;
21800;SDS011;11062;51.164;16.924;2023-05-29T01:37:03;7.07;;;3.83;;
21800;SDS011;11062;51.164;16.924;2023-05-29T01:39:32;4.55;;;3.22;;
21800;SDS011;11062;51.164;16.924;2023-05-29T01:41:58;10.07;;;4.40;;
21800;SDS011;11062;51.164;16.924;2023-05-29T01:44:25;8.93;;;4.18;;
21800;SDS011;11062;51.164;16.924;2023-05-29T01:46:52;4.43;;;3.10;;
21800;SDS011;11062;51.164;16.924;2023-05-29T01:49:19;6.68;;;3.42;;
21800;SDS011;11062;51.164;16.924;2023-05-29T01:51:55;7.18;;;3.60;;
21800;SDS011;11062;51.164;16.924;2023-05-29T01:54:24;14.07;;;4.32;;
21800;SDS011;11062;51.164;16.924;2023-05-29T01:56:53;9.88;;;4.07;;
21800;SDS011;11062;51.164;16.924;2023-05-29T01:59:23;9.55;;;3.63;;
21800;SDS011;11062;51.164;16.924;2023-05-29T02:01:51;5.97;;;3.60;;
21800;SDS011;11062;51.164;16.924;2023-05-29T05:00:39;10.45;;;4.28;;
21800;SDS011;11062;51.164;16.924;2023-05-29T05:03:05;10.13;;;4.28;;
21800;SDS011;11062;51.164;16.924;2023-05-29T05:05:31;5.07;;;3.88;;
21800;SDS011;11062;51.164;16.924;2023-05-29T05:07:58;8.50;;;3.67;;
21800;SDS011;11062;51.164;16.924;2023-05-29T15:19:22;379.67;;;217.63;;
21800;SDS011;11062;51.164;16.924;2023-05-29T15:21:48;406.33;;;231.38;;
21800;SDS011;11062;51.164;16.924;2023-05-29T15:24:14;400.48;;;220.93;;
21800;SDS011;11062;51.164;16.924;2023-05-29T15:26:41;364.75;;;209.68;;
21800;SDS011;11062;51.164;16.924;2023-05-29T15:29:07;390.90;;;227.07;;
21800;SDS011;11062;51.164;16.924;2023-05-29T15:31:33;398.65;;;236.85;;
21800;SDS011;11062;51.164;16.924;2023-05-29T15:33:59;369.83;;;213.32;;
21800;SDS011;11062;51.164;16.924;2023-05-29T15:36:26;393.95;;;221.40;;
21800;SDS011;11062;51.164;16.924;2023-05-29T15:38:55;386.38;;;215.38;;
21800;SDS011;11062;51.164;16.924;2023-05-29T15:41:21;363.45;;;209.63;;
21800;SDS011;11062;51.164;16.924;2023-05-29T15:43:56;363.90;;;201.20;;
21800;SDS011;11062;51.164;16.924;2023-05-29T15:46:29;402.27;;;221.27;;
21800;SDS011;11062;51.164;16.924;2023-05-29T15:48:55;371.70;;;191.85;;
21800;SDS011;11062;51.164;16.924;2023-05-29T15:51:21;382.70;;;199.70;;
21800;SDS011;11062;51.164;16.924;2023-05-29T15:53:48;357.40;;;180.07;;
21800;SDS011;11062;51.164;16.924;2023-05-29T15:56:14;361.42;;;183.05;;
21800;SDS011;11062;51.164;16.924;2023-05-29T15:58:40;372.85;;;180.73;;
21800;SDS011;11062;51.164;16.924;2023-05-29T16:01:06;365.35;;;183.55;;
21800;SDS011;11062;51.164;16.924;2023-05-29T16:03:32;368.98;;;195.93;;
21800;SDS011;11062;51.164;16.924;2023-05-29T16:06:01;470.10;;;398.30;;
21800;SDS011;11062;51.164;16.924;2023-05-29T16:08:27;456.77;;;312.50;;
21800;SDS011;11062;51.164;16.924;2023-05-29T16:10:54;430.63;;;298.00;;
21800;SDS011;11062;51.164;16.924;2023-05-29T16:13:20;478.63;;;350.60;;
21800;SDS011;11062;51.164;16.924;2023-05-29T16:15:46;471.30;;;349.02;;
21800;SDS011;11062;51.164;16.924;2023-05-29T16:18:13;438.95;;;276.80;;
21800;SDS011;11062;51.164;16.924;2023-05-29T16:20:39;451.35;;;328.88;;
21800;SDS011;11062;51.164;16.924;2023-05-29T16:23:05;391.40;;;228.18;;
21800;SDS011;11062;51.164;16.924;2023-05-29T16:25:31;399.80;;;244.07;;
21800;SDS011;11062;51.164;16.924;2023-05-29T16:27:58;365.77;;;184.02;;
21800;SDS011;11062;51.164;16.924;2023-05-29T16:30:24;405.25;;;201.77;;
21800;SDS011;11062;51.164;16.924;2023-05-29T16:32:54;374.90;;;194.93;;
21800;SDS011;11062;51.164;16.924;2023-05-29T16:35:20;391.02;;;230.40;;
21800;SDS011;11062;51.164;16.924;2023-05-29T16:37:46;418.35;;;254.40;;
21800;SDS011;11062;51.164;16.924;2023-05-29T16:40:13;404.25;;;253.48;;
21800;SDS011;11062;51.164;16.924;2023-05-29T16:42:39;380.77;;;202.30;;
21800;SDS011;11062;51.164;16.924;2023-05-29T16:45:06;457.15;;;352.67;;
21800;SDS011;11062;51.164;16.924;2023-05-29T16:47:32;482.83;;;379.73;;
21800;SDS011;11062;51.164;16.924;2023-05-29T16:49:58;409.13;;;286.52;;
21800;SDS011;11062;51.164;16.924;2023-05-29T16:52:24;392.40;;;259.05;;
21800;SDS011;11062;51.164;16.924;2023-05-29T16:54:50;425.98;;;342.58;;
21800;SDS011;11062;51.164;16.924;2023-05-29T16:57:16;436.45;;;339.55;;
21800;SDS011;11062;51.164;16.924;2023-05-29T16:59:45;381.30;;;238.05;;
21800;SDS011;11062;51.164;16.924;2023-05-29T17:02:11;630.45;;;563.72;;
21800;SDS011;11062;51.164;16.924;2023-05-29T17:04:38;431.55;;;313.17;;
21800;SDS011;11062;51.164;16.924;2023-05-29T17:07:05;413.38;;;230.90;;
21800;SDS011;11062;51.164;16.924;2023-05-29T17:09:31;442.92;;;314.33;;
21800;SDS011;11062;51.164;16.924;2023-05-29T17:11:57;447.52;;;321.33;;
21800;SDS011;11062;51.164;16.924;2023-05-29T17:14:24;414.30;;;308.02;;
21800;SDS011;11062;51.164;16.924;2023-05-29T17:16:53;407.55;;;277.83;;
21800;SDS011;11062;51.164;16.924;2023-05-29T17:19:19;423.63;;;316.42;;
21800;SDS011;11062;51.164;16.924;2023-05-29T17:21:45;441.90;;;357.55;;
21800;SDS011;11062;51.164;16.924;2023-05-29T17:24:13;406.83;;;265.48;;
21800;SDS011;11062;51.164;16.924;2023-05-29T17:26:42;372.98;;;207.30;;
21800;SDS011;11062;51.164;16.924;2023-05-29T17:29:11;436.02;;;387.80;;
21800;SDS011;11062;51.164;16.924;2023-05-29T17:31:41;438.15;;;266.65;;
21800;SDS011;11062;51.164;16.924;2023-05-29T17:34:09;530.50;;;426.83;;
21800;SDS011;11062;51.164;16.924;2023-05-29T17:36:36;392.20;;;235.48;;
21800;SDS011;11062;51.164;16.924;2023-05-29T17:39:04;468.45;;;361.30;;
21800;SDS011;11062;51.164;16.924;2023-05-29T17:41:30;439.20;;;309.52;;
21800;SDS011;11062;51.164;16.924;2023-05-29T17:44:00;395.63;;;221.07;;
21800;SDS011;11062;51.164;16.924;2023-05-29T17:46:27;507.27;;;412.95;;
21800;SDS011;11062;51.164;16.924;2023-05-29T17:48:53;420.13;;;295.63;;
21800;SDS011;11062;51.164;16.924;2023-05-29T17:51:19;446.85;;;338.55;;
21800;SDS011;11062;51.164;16.924;2023-05-29T17:53:47;416.98;;;240.07;;
21800;SDS011;11062;51.164;16.924;2023-05-29T17:56:19;384.80;;;215.65;;
21800;SDS011;11062;51.164;16.924;2023-05-29T17:58:45;448.90;;;328.88;;
21800;SDS011;11062;51.164;16.924;2023-05-29T18:01:13;353.38;;;167.13;;
21800;SDS011;11062;51.164;16.924;2023-05-29T18:03:40;400.88;;;178.30;;
21800;SDS011;11062;51.164;16.924;2023-05-29T18:06:09;391.40;;;180.52;;
21800;SDS011;11062;51.164;16.924;2023-05-29T18:08:35;435.35;;;302.00;;
21800;SDS011;11062;51.164;16.924;2023-05-29T18:11:04;489.45;;;384.38;;
21800;SDS011;11062;51.164;16.924;2023-05-29T18:13:30;411.80;;;261.98;;
21800;SDS011;11062;51.164;16.924;2023-05-29T18:15:57;442.75;;;296.83;;
21800;SDS011;11062;51.164;16.924;2023-05-29T18:18:34;493.77;;;360.35;;
21800;SDS011;11062;51.164;16.924;2023-05-29T18:21:00;462.13;;;325.40;;
21800;SDS011;11062;51.164;16.924;2023-05-29T18:23:30;388.52;;;217.88;;
21800;SDS011;11062;51.164;16.924;2023-05-29T18:25:56;379.52;;;187.48;;
21800;SDS011;11062;51.164;16.924;2023-05-29T18:28:22;507.23;;;381.05;;
21800;SDS011;11062;51.164;16.924;2023-05-29T18:30:48;469.98;;;325.30;;
21800;SDS011;11062;51.164;16.924;2023-05-29T18:33:14;344.67;;;141.30;;
21800;SDS011;11062;51.164;16.924;2023-05-29T18:35:40;368.92;;;160.18;;
21800;SDS011;11062;51.164;16.924;2023-05-29T18:38:07;377.30;;;182.55;;
21800;SDS011;11062;51.164;16.924;2023-05-29T18:40:39;399.63;;;173.52;;
21800;SDS011;11062;51.164;16.924;2023-05-29T18:43:06;352.50;;;142.95;;
21800;SDS011;11062;51.164;16.924;2023-05-29T18:45:35;344.13;;;136.55;;
21800;SDS011;11062;51.164;16.924;2023-05-29T18:48:02;350.35;;;142.05;;
21800;SDS011;11062;51.164;16.924;2023-05-29T18:50:28;343.13;;;137.07;;
21800;SDS011;11062;51.164;16.924;2023-05-29T18:52:54;356.15;;;143.70;;
21800;SDS011;11062;51.164;16.924;2023-05-29T18:55:20;369.42;;;136.73;;
21800;SDS011;11062;51.164;16.924;2023-05-29T18:57:47;338.90;;;132.45;;
21800;SDS011;11062;51.164;16.924;2023-05-29T19:00:16;343.63;;;133.68;;
21800;SDS011;11062;51.164;16.924;2023-05-29T19:02:48;343.17;;;126.85;;
21800;SDS011;11062;51.164;16.924;2023-05-29T19:05:18;340.35;;;124.95;;
21800;SDS011;11062;51.164;16.924;2023-05-29T19:07:51;406.73;;;130.65;;
21800;SDS011;11062;51.164;16.924;2023-05-29T19:10:29;357.67;;;130.88;;
21800;SDS011;11062;51.164;16.924;2023-05-29T19:12:56;444.50;;;324.85;;
21800;SDS011;11062;51.164;16.924;2023-05-29T19:15:25;336.83;;;120.25;;
